sensor_id;sensor_type;location;lat;lon;timestamp;temperature;humidity
45012;DHT22;63444;48.148;11.542;2022-12-07T00:00:52;4.70;99.90
45012;DHT22;63444;48.148;11.542;2022-12-07T00:03:18;4.70;99.90
45012;DHT22;63444;48.148;11.542;2022-12-07T00:05:44;4.60;99.90
45012;DHT22;63444;48.148;11.542;2022-12-07T00:08:09;4.60;99.90
45012;DHT22;63444;48.148;11.542;2022-12-07T00:10:35;4.60;99.90
45012;DHT22;63444;48.148;11.542;2022-12-07T00:13:00;4.60;99.90
45012;DHT22;63444;48.148;11.542;2022-12-07T00:15:26;4.70;99.90
45012;DHT22;63444;48.148;11.542;2022-12-07T00:17:52;4.60;99.90
45012;DHT22;63444;48.148;11.542;2022-12-07T00:20:17;4.60;99.90
45012;DHT22;63444;48.148;11.542;2022-12-07T00:22:43;4.60;99.90
45012;DHT22;63444;48.148;11.542;2022-12-07T00:25:08;4.60;99.90
45012;DHT22;63444;48.148;11.542;2022-12-07T00:27:34;4.60;99.90
45012;DHT22;63444;48.148;11.542;2022-12-07T00:29:59;4.60;99.90
45012;DHT22;63444;48.148;11.542;2022-12-07T00:32:25;4.60;99.90
45012;DHT22;63444;48.148;11.542;2022-12-07T00:34:52;4.60;99.90
45012;DHT22;63444;48.148;11.542;2022-12-07T00:37:17;4.60;99.90
45012;DHT22;63444;48.148;11.542;2022-12-07T00:39:43;4.60;99.90
45012;DHT22;63444;48.148;11.542;2022-12-07T00:42:09;4.60;99.90
45012;DHT22;63444;48.148;11.542;2022-12-07T00:44:35;4.50;99.90
45012;DHT22;63444;48.148;11.542;2022-12-07T00:47:00;4.60;99.90
45012;DHT22;63444;48.148;11.542;2022-12-07T00:49:26;4.60;99.90
45012;DHT22;63444;48.148;11.542;2022-12-07T00:51:51;4.60;99.90
45012;DHT22;63444;48.148;11.542;2022-12-07T00:54:17;4.60;99.90
45012;DHT22;63444;48.148;11.542;2022-12-07T00:56:42;4.60;99.90
45012;DHT22;63444;48.148;11.542;2022-12-07T00:59:12;4.60;99.90
45012;DHT22;63444;48.148;11.542;2022-12-07T01:01:38;4.60;99.90
45012;DHT22;63444;48.148;11.542;2022-12-07T01:04:04;4.50;99.90
45012;DHT22;63444;48.148;11.542;2022-12-07T01:06:30;4.50;99.90
45012;DHT22;63444;48.148;11.542;2022-12-07T01:08:57;4.50;99.90
45012;DHT22;63444;48.148;11.542;2022-12-07T01:11:25;4.50;99.90
45012;DHT22;63444;48.148;11.542;2022-12-07T01:13:52;4.50;99.90
45012;DHT22;63444;48.148;11.542;2022-12-07T01:16:19;4.40;99.90
45012;DHT22;63444;48.148;11.542;2022-12-07T01:18:47;4.40;99.90
45012;DHT22;63444;48.148;11.542;2022-12-07T01:21:25;4.40;99.90
45012;DHT22;63444;48.148;11.542;2022-12-07T01:23:51;4.50;99.90
45012;DHT22;63444;48.148;11.542;2022-12-07T01:26:20;4.50;99.90
45012;DHT22;63444;48.148;11.542;2022-12-07T01:28:46;4.40;99.90
45012;DHT22;63444;48.148;11.542;2022-12-07T01:31:14;4.40;99.90
45012;DHT22;63444;48.148;11.542;2022-12-07T01:33:41;4.40;99.90
45012;DHT22;63444;48.148;11.542;2022-12-07T01:36:20;4.40;99.90
45012;DHT22;63444;48.148;11.542;2022-12-07T01:38:47;4.40;99.90
45012;DHT22;63444;48.148;11.542;2022-12-07T01:41:13;4.40;99.90
45012;DHT22;63444;48.148;11.542;2022-12-07T01:47:03;4.50;99.90
45012;DHT22;63444;48.148;11.542;2022-12-07T01:49:44;4.50;99.90
45012;DHT22;63444;48.148;11.542;2022-12-07T01:52:15;4.40;99.90
45012;DHT22;63444;48.148;11.542;2022-12-07T01:54:43;4.40;99.90
45012;DHT22;63444;48.148;11.542;2022-12-07T01:57:10;4.40;99.90
45012;DHT22;63444;48.148;11.542;2022-12-07T01:59:36;4.40;99.90
45012;DHT22;63444;48.148;11.542;2022-12-07T02:02:03;4.40;99.90
45012;DHT22;63444;48.148;11.542;2022-12-07T02:04:30;4.40;99.90
45012;DHT22;63444;48.148;11.542;2022-12-07T02:06:57;4.40;99.90
45012;DHT22;63444;48.148;11.542;2022-12-07T02:09:23;4.40;99.90
45012;DHT22;63444;48.148;11.542;2022-12-07T02:11:49;4.30;99.90
45012;DHT22;63444;48.148;11.542;2022-12-07T02:14:14;4.30;99.90
45012;DHT22;63444;48.148;11.542;2022-12-07T02:17:03;4.30;99.90
45012;DHT22;63444;48.148;11.542;2022-12-07T02:19:39;4.30;99.90
45012;DHT22;63444;48.148;11.542;2022-12-07T02:25:41;4.30;99.90
45012;DHT22;63444;48.148;11.542;2022-12-07T02:28:33;4.30;99.90
45012;DHT22;63444;48.148;11.542;2022-12-07T02:31:09;4.30;99.90
45012;DHT22;63444;48.148;11.542;2022-12-07T02:33:43;4.30;99.90
45012;DHT22;63444;48.148;11.542;2022-12-07T02:36:17;4.30;99.90
45012;DHT22;63444;48.148;11.542;2022-12-07T02:39:14;4.30;99.90
45012;DHT22;63444;48.148;11.542;2022-12-07T02:41:52;4.20;99.90
45012;DHT22;63444;48.148;11.542;2022-12-07T02:44:24;4.30;99.90
45012;DHT22;63444;48.148;11.542;2022-12-07T02:46:54;4.20;99.90
45012;DHT22;63444;48.148;11.542;2022-12-07T02:49:22;4.20;99.90
45012;DHT22;63444;48.148;11.542;2022-12-07T02:51:49;4.20;99.90
45012;DHT22;63444;48.148;11.542;2022-12-07T02:54:18;4.20;99.90
45012;DHT22;63444;48.148;11.542;2022-12-07T02:56:53;4.20;99.90
45012;DHT22;63444;48.148;11.542;2022-12-07T03:03:04;4.20;99.90
45012;DHT22;63444;48.148;11.542;2022-12-07T03:16:17;4.30;99.90
45012;DHT22;63444;48.148;11.542;2022-12-07T03:19:08;4.20;99.90
45012;DHT22;63444;48.148;11.542;2022-12-07T03:21:47;4.20;99.90
45012;DHT22;63444;48.148;11.542;2022-12-07T03:24:18;4.20;99.90
45012;DHT22;63444;48.148;11.542;2022-12-07T03:26:48;4.20;99.90
45012;DHT22;63444;48.148;11.542;2022-12-07T03:29:22;4.20;99.90
45012;DHT22;63444;48.148;11.542;2022-12-07T03:31:58;4.20;99.90
45012;DHT22;63444;48.148;11.542;2022-12-07T03:37:12;4.30;99.90
45012;DHT22;63444;48.148;11.542;2022-12-07T03:40:02;4.30;99.90
45012;DHT22;63444;48.148;11.542;2022-12-07T03:42:30;4.30;99.90
45012;DHT22;63444;48.148;11.542;2022-12-07T03:44:56;4.30;99.90
45012;DHT22;63444;48.148;11.542;2022-12-07T03:47:54;4.30;99.90
45012;DHT22;63444;48.148;11.542;2022-12-07T03:50:44;4.30;99.90
45012;DHT22;63444;48.148;11.542;2022-12-07T03:53:22;4.30;99.90
45012;DHT22;63444;48.148;11.542;2022-12-07T03:55:50;4.20;99.90
45012;DHT22;63444;48.148;11.542;2022-12-07T03:58:19;4.20;99.90
45012;DHT22;63444;48.148;11.542;2022-12-07T04:00:46;4.20;99.90
45012;DHT22;63444;48.148;11.542;2022-12-07T04:03:11;4.20;99.90
45012;DHT22;63444;48.148;11.542;2022-12-07T04:05:38;4.20;99.90
45012;DHT22;63444;48.148;11.542;2022-12-07T04:08:04;4.20;99.90
45012;DHT22;63444;48.148;11.542;2022-12-07T04:10:30;4.20;99.90
45012;DHT22;63444;48.148;11.542;2022-12-07T04:12:56;4.20;99.90
45012;DHT22;63444;48.148;11.542;2022-12-07T04:15:21;4.20;99.90
45012;DHT22;63444;48.148;11.542;2022-12-07T04:17:47;4.20;99.90
45012;DHT22;63444;48.148;11.542;2022-12-07T04:20:13;4.10;99.90
45012;DHT22;63444;48.148;11.542;2022-12-07T04:22:39;4.10;99.90
45012;DHT22;63444;48.148;11.542;2022-12-07T04:25:05;4.20;99.90
45012;DHT22;63444;48.148;11.542;2022-12-07T04:27:30;4.20;99.90
45012;DHT22;63444;48.148;11.542;2022-12-07T04:29:56;4.20;99.90
45012;DHT22;63444;48.148;11.542;2022-12-07T04:32:23;4.20;99.90
45012;DHT22;63444;48.148;11.542;2022-12-07T04:34:49;4.20;99.90
45012;DHT22;63444;48.148;11.542;2022-12-07T04:37:15;4.20;99.90
45012;DHT22;63444;48.148;11.542;2022-12-07T04:39:41;4.20;99.90
45012;DHT22;63444;48.148;11.542;2022-12-07T04:42:06;4.20;99.90
45012;DHT22;63444;48.148;11.542;2022-12-07T04:44:32;4.20;99.90
45012;DHT22;63444;48.148;11.542;2022-12-07T04:46:57;4.20;99.90
45012;DHT22;63444;48.148;11.542;2022-12-07T04:49:24;4.10;99.90
45012;DHT22;63444;48.148;11.542;2022-12-07T04:51:50;4.20;99.90
45012;DHT22;63444;48.148;11.542;2022-12-07T04:54:16;4.10;99.90
45012;DHT22;63444;48.148;11.542;2022-12-07T04:56:43;4.10;99.90
45012;DHT22;63444;48.148;11.542;2022-12-07T04:59:14;4.10;99.90
45012;DHT22;63444;48.148;11.542;2022-12-07T05:01:40;4.10;99.90
45012;DHT22;63444;48.148;11.542;2022-12-07T05:04:06;4.10;99.90
45012;DHT22;63444;48.148;11.542;2022-12-07T05:06:32;4.10;99.90
45012;DHT22;63444;48.148;11.542;2022-12-07T05:08:57;4.10;99.90
45012;DHT22;63444;48.148;11.542;2022-12-07T05:11:23;4.10;99.90
45012;DHT22;63444;48.148;11.542;2022-12-07T05:14:07;4.10;99.90
45012;DHT22;63444;48.148;11.542;2022-12-07T05:16:34;4.10;99.90
45012;DHT22;63444;48.148;11.542;2022-12-07T05:19:00;4.10;99.90
45012;DHT22;63444;48.148;11.542;2022-12-07T05:21:25;4.10;99.90
45012;DHT22;63444;48.148;11.542;2022-12-07T05:23:51;4.00;99.90
45012;DHT22;63444;48.148;11.542;2022-12-07T05:26:17;4.00;99.90
45012;DHT22;63444;48.148;11.542;2022-12-07T05:28:42;4.00;99.90
45012;DHT22;63444;48.148;11.542;2022-12-07T05:31:08;4.00;99.90
45012;DHT22;63444;48.148;11.542;2022-12-07T05:33:34;4.00;99.90
45012;DHT22;63444;48.148;11.542;2022-12-07T05:36:01;4.00;99.90
45012;DHT22;63444;48.148;11.542;2022-12-07T05:38:31;4.00;99.90
45012;DHT22;63444;48.148;11.542;2022-12-07T05:41:03;4.00;99.90
45012;DHT22;63444;48.148;11.542;2022-12-07T05:43:29;4.00;99.90
45012;DHT22;63444;48.148;11.542;2022-12-07T05:45:55;4.00;99.90
45012;DHT22;63444;48.148;11.542;2022-12-07T05:48:21;4.00;99.90
45012;DHT22;63444;48.148;11.542;2022-12-07T05:50:50;4.00;99.90
45012;DHT22;63444;48.148;11.542;2022-12-07T05:53:16;4.00;99.90
45012;DHT22;63444;48.148;11.542;2022-12-07T05:55:43;4.00;99.90
45012;DHT22;63444;48.148;11.542;2022-12-07T05:58:08;4.00;99.90
45012;DHT22;63444;48.148;11.542;2022-12-07T06:00:55;4.00;99.90
45012;DHT22;63444;48.148;11.542;2022-12-07T06:03:20;3.90;99.90
45012;DHT22;63444;48.148;11.542;2022-12-07T06:05:46;3.90;99.90
45012;DHT22;63444;48.148;11.542;2022-12-07T06:08:11;3.90;99.90
45012;DHT22;63444;48.148;11.542;2022-12-07T06:10:37;3.90;99.90
45012;DHT22;63444;48.148;11.542;2022-12-07T06:13:03;3.90;99.90
45012;DHT22;63444;48.148;11.542;2022-12-07T06:15:28;3.90;99.90
45012;DHT22;63444;48.148;11.542;2022-12-07T06:17:54;3.90;99.90
45012;DHT22;63444;48.148;11.542;2022-12-07T06:20:19;3.90;99.90
45012;DHT22;63444;48.148;11.542;2022-12-07T06:22:45;3.90;99.90
45012;DHT22;63444;48.148;11.542;2022-12-07T06:25:10;3.90;99.90
45012;DHT22;63444;48.148;11.542;2022-12-07T06:27:36;3.90;99.90
45012;DHT22;63444;48.148;11.542;2022-12-07T06:30:02;3.80;99.90
45012;DHT22;63444;48.148;11.542;2022-12-07T06:32:33;3.80;99.90
45012;DHT22;63444;48.148;11.542;2022-12-07T06:34:59;3.80;99.90
45012;DHT22;63444;48.148;11.542;2022-12-07T06:37:25;3.90;99.90
45012;DHT22;63444;48.148;11.542;2022-12-07T06:39:50;3.90;99.90
45012;DHT22;63444;48.148;11.542;2022-12-07T06:42:16;3.90;99.90
45012;DHT22;63444;48.148;11.542;2022-12-07T06:44:41;3.90;99.90
45012;DHT22;63444;48.148;11.542;2022-12-07T06:47:07;3.90;99.90
45012;DHT22;63444;48.148;11.542;2022-12-07T06:49:34;3.90;99.90
45012;DHT22;63444;48.148;11.542;2022-12-07T06:52:00;3.90;99.90
45012;DHT22;63444;48.148;11.542;2022-12-07T06:54:25;3.90;99.90
45012;DHT22;63444;48.148;11.542;2022-12-07T06:56:51;3.90;99.90
45012;DHT22;63444;48.148;11.542;2022-12-07T06:59:16;3.90;99.90
45012;DHT22;63444;48.148;11.542;2022-12-07T07:01:42;3.90;99.90
45012;DHT22;63444;48.148;11.542;2022-12-07T07:04:09;3.90;99.90
45012;DHT22;63444;48.148;11.542;2022-12-07T07:06:34;3.90;99.90
45012;DHT22;63444;48.148;11.542;2022-12-07T07:09:00;3.90;99.90
45012;DHT22;63444;48.148;11.542;2022-12-07T07:11:25;3.90;99.90
45012;DHT22;63444;48.148;11.542;2022-12-07T07:13:51;3.90;99.90
45012;DHT22;63444;48.148;11.542;2022-12-07T07:16:17;3.90;99.90
45012;DHT22;63444;48.148;11.542;2022-12-07T07:18:43;3.90;99.90
45012;DHT22;63444;48.148;11.542;2022-12-07T07:21:08;3.90;99.90
45012;DHT22;63444;48.148;11.542;2022-12-07T07:23:34;3.90;99.90
45012;DHT22;63444;48.148;11.542;2022-12-07T07:26:00;3.80;99.90
45012;DHT22;63444;48.148;11.542;2022-12-07T07:28:25;3.80;99.90
45012;DHT22;63444;48.148;11.542;2022-12-07T07:30:51;3.80;99.90
45012;DHT22;63444;48.148;11.542;2022-12-07T07:33:17;3.80;99.90
45012;DHT22;63444;48.148;11.542;2022-12-07T07:35:42;3.80;99.90
45012;DHT22;63444;48.148;11.542;2022-12-07T07:38:09;3.80;99.90
45012;DHT22;63444;48.148;11.542;2022-12-07T07:40:35;3.80;99.90
45012;DHT22;63444;48.148;11.542;2022-12-07T07:43:00;3.80;99.90
45012;DHT22;63444;48.148;11.542;2022-12-07T07:45:27;3.80;99.90
45012;DHT22;63444;48.148;11.542;2022-12-07T07:47:52;3.80;99.90
45012;DHT22;63444;48.148;11.542;2022-12-07T07:50:27;3.70;99.90
45012;DHT22;63444;48.148;11.542;2022-12-07T07:52:54;3.80;99.90
45012;DHT22;63444;48.148;11.542;2022-12-07T07:55:21;3.80;99.90
45012;DHT22;63444;48.148;11.542;2022-12-07T07:57:47;3.80;99.90
45012;DHT22;63444;48.148;11.542;2022-12-07T08:00:15;3.80;99.90
45012;DHT22;63444;48.148;11.542;2022-12-07T08:02:42;3.80;99.90
45012;DHT22;63444;48.148;11.542;2022-12-07T08:05:09;3.80;99.90
45012;DHT22;63444;48.148;11.542;2022-12-07T08:07:35;3.70;99.90
45012;DHT22;63444;48.148;11.542;2022-12-07T08:10:01;3.80;99.90
45012;DHT22;63444;48.148;11.542;2022-12-07T08:12:26;3.80;99.90
45012;DHT22;63444;48.148;11.542;2022-12-07T08:14:52;3.80;99.90
45012;DHT22;63444;48.148;11.542;2022-12-07T08:17:17;3.80;99.90
45012;DHT22;63444;48.148;11.542;2022-12-07T08:19:43;3.80;99.90
45012;DHT22;63444;48.148;11.542;2022-12-07T08:22:08;3.80;99.90
45012;DHT22;63444;48.148;11.542;2022-12-07T08:24:34;3.80;99.90
45012;DHT22;63444;48.148;11.542;2022-12-07T08:27:00;3.80;99.90
45012;DHT22;63444;48.148;11.542;2022-12-07T08:29:26;3.90;99.90
45012;DHT22;63444;48.148;11.542;2022-12-07T08:31:51;3.90;99.90
45012;DHT22;63444;48.148;11.542;2022-12-07T08:34:17;3.90;99.90
45012;DHT22;63444;48.148;11.542;2022-12-07T08:36:43;3.90;99.90
45012;DHT22;63444;48.148;11.542;2022-12-07T08:39:09;3.90;99.90
45012;DHT22;63444;48.148;11.542;2022-12-07T08:41:35;3.90;99.90
45012;DHT22;63444;48.148;11.542;2022-12-07T08:44:01;3.80;99.90
45012;DHT22;63444;48.148;11.542;2022-12-07T08:46:38;3.90;99.90
45012;DHT22;63444;48.148;11.542;2022-12-07T08:49:27;3.90;99.90
45012;DHT22;63444;48.148;11.542;2022-12-07T08:51:50;4.00;99.90
45012;DHT22;63444;48.148;11.542;2022-12-07T08:54:17;4.00;99.90
45012;DHT22;63444;48.148;11.542;2022-12-07T08:56:44;4.00;99.90
45012;DHT22;63444;48.148;11.542;2022-12-07T08:59:13;4.10;99.90
45012;DHT22;63444;48.148;11.542;2022-12-07T09:01:39;4.10;99.90
45012;DHT22;63444;48.148;11.542;2022-12-07T09:04:04;4.10;99.90
45012;DHT22;63444;48.148;11.542;2022-12-07T09:06:30;4.10;99.90
45012;DHT22;63444;48.148;11.542;2022-12-07T09:08:58;4.10;99.90
45012;DHT22;63444;48.148;11.542;2022-12-07T09:11:24;4.10;99.90
45012;DHT22;63444;48.148;11.542;2022-12-07T09:13:50;4.20;99.90
45012;DHT22;63444;48.148;11.542;2022-12-07T09:16:16;4.10;99.90
45012;DHT22;63444;48.148;11.542;2022-12-07T09:18:41;4.10;99.90
45012;DHT22;63444;48.148;11.542;2022-12-07T09:21:07;4.10;99.90
45012;DHT22;63444;48.148;11.542;2022-12-07T09:23:32;4.20;99.90
45012;DHT22;63444;48.148;11.542;2022-12-07T09:26:02;4.20;99.90
45012;DHT22;63444;48.148;11.542;2022-12-07T09:28:30;4.30;99.90
45012;DHT22;63444;48.148;11.542;2022-12-07T09:30:56;4.40;99.90
45012;DHT22;63444;48.148;11.542;2022-12-07T09:33:22;4.40;99.90
45012;DHT22;63444;48.148;11.542;2022-12-07T09:35:49;4.50;99.90
45012;DHT22;63444;48.148;11.542;2022-12-07T09:38:16;4.50;99.90
45012;DHT22;63444;48.148;11.542;2022-12-07T09:40:43;4.60;99.90
45012;DHT22;63444;48.148;11.542;2022-12-07T09:43:20;4.60;99.90
45012;DHT22;63444;48.148;11.542;2022-12-07T09:45:48;4.70;99.90
45012;DHT22;63444;48.148;11.542;2022-12-07T09:48:18;4.70;99.90
45012;DHT22;63444;48.148;11.542;2022-12-07T09:50:46;4.80;99.90
45012;DHT22;63444;48.148;11.542;2022-12-07T09:53:33;4.80;99.90
45012;DHT22;63444;48.148;11.542;2022-12-07T09:55:59;4.90;99.90
45012;DHT22;63444;48.148;11.542;2022-12-07T09:58:28;4.90;99.90
45012;DHT22;63444;48.148;11.542;2022-12-07T10:00:59;4.90;99.90
45012;DHT22;63444;48.148;11.542;2022-12-07T10:03:26;5.00;99.90
45012;DHT22;63444;48.148;11.542;2022-12-07T10:05:52;4.90;99.90
45012;DHT22;63444;48.148;11.542;2022-12-07T10:08:19;5.00;99.90
45012;DHT22;63444;48.148;11.542;2022-12-07T10:10:45;5.00;99.90
45012;DHT22;63444;48.148;11.542;2022-12-07T10:13:14;5.00;99.90
45012;DHT22;63444;48.148;11.542;2022-12-07T10:15:52;5.10;99.90
45012;DHT22;63444;48.148;11.542;2022-12-07T10:18:34;5.20;99.90
45012;DHT22;63444;48.148;11.542;2022-12-07T10:21:18;5.20;99.90
45012;DHT22;63444;48.148;11.542;2022-12-07T10:24:02;5.30;99.90
45012;DHT22;63444;48.148;11.542;2022-12-07T10:26:34;5.30;99.90
45012;DHT22;63444;48.148;11.542;2022-12-07T10:31:39;5.40;99.90
45012;DHT22;63444;48.148;11.542;2022-12-07T10:34:34;5.50;99.90
45012;DHT22;63444;48.148;11.542;2022-12-07T10:39:52;5.70;99.90
45012;DHT22;63444;48.148;11.542;2022-12-07T10:50:47;6.10;99.90
45012;DHT22;63444;48.148;11.542;2022-12-07T11:15:24;8.00;99.90
45012;DHT22;63444;48.148;11.542;2022-12-07T11:35:11;8.80;99.90
45012;DHT22;63444;48.148;11.542;2022-12-07T11:37:39;8.80;99.90
45012;DHT22;63444;48.148;11.542;2022-12-07T11:43:04;8.60;99.90
45012;DHT22;63444;48.148;11.542;2022-12-07T11:45:34;8.40;99.90
45012;DHT22;63444;48.148;11.542;2022-12-07T11:48:14;8.20;99.90
45012;DHT22;63444;48.148;11.542;2022-12-07T11:53:36;8.20;99.90
45012;DHT22;63444;48.148;11.542;2022-12-07T12:06:33;7.80;99.90
45012;DHT22;63444;48.148;11.542;2022-12-07T12:12:05;7.80;99.90
45012;DHT22;63444;48.148;11.542;2022-12-07T12:22:16;7.80;99.90
45012;DHT22;63444;48.148;11.542;2022-12-07T12:24:44;7.80;99.90
45012;DHT22;63444;48.148;11.542;2022-12-07T12:27:26;7.70;99.90
45012;DHT22;63444;48.148;11.542;2022-12-07T12:30:00;7.60;99.90
45012;DHT22;63444;48.148;11.542;2022-12-07T12:32:44;7.50;99.90
45012;DHT22;63444;48.148;11.542;2022-12-07T12:35:30;7.50;99.90
45012;DHT22;63444;48.148;11.542;2022-12-07T12:38:26;7.40;99.90
45012;DHT22;63444;48.148;11.542;2022-12-07T12:40:54;7.30;99.90
45012;DHT22;63444;48.148;11.542;2022-12-07T12:51:47;7.10;99.90
45012;DHT22;63444;48.148;11.542;2022-12-07T12:54:21;7.10;99.90
45012;DHT22;63444;48.148;11.542;2022-12-07T13:04:56;7.00;99.90
45012;DHT22;63444;48.148;11.542;2022-12-07T13:08:01;7.00;99.90
45012;DHT22;63444;48.148;11.542;2022-12-07T13:21:02;6.90;99.90
45012;DHT22;63444;48.148;11.542;2022-12-07T13:26:17;6.90;99.90
45012;DHT22;63444;48.148;11.542;2022-12-07T13:31:42;6.90;99.90
45012;DHT22;63444;48.148;11.542;2022-12-07T13:36:53;6.90;99.90
45012;DHT22;63444;48.148;11.542;2022-12-07T13:39:21;6.90;99.90
45012;DHT22;63444;48.148;11.542;2022-12-07T13:41:56;6.90;99.90
45012;DHT22;63444;48.148;11.542;2022-12-07T13:44:24;6.80;99.90
45012;DHT22;63444;48.148;11.542;2022-12-07T13:49:46;6.70;99.90
45012;DHT22;63444;48.148;11.542;2022-12-07T13:52:22;6.60;99.90
45012;DHT22;63444;48.148;11.542;2022-12-07T13:57:30;6.50;99.90
45012;DHT22;63444;48.148;11.542;2022-12-07T13:59:58;6.40;99.90
45012;DHT22;63444;48.148;11.542;2022-12-07T14:02:32;6.40;99.90
45012;DHT22;63444;48.148;11.542;2022-12-07T14:05:24;6.30;99.90
45012;DHT22;63444;48.148;11.542;2022-12-07T14:12:59;6.20;99.90
45012;DHT22;63444;48.148;11.542;2022-12-07T14:15:29;6.10;99.90
45012;DHT22;63444;48.148;11.542;2022-12-07T14:17:56;6.10;99.90
45012;DHT22;63444;48.148;11.542;2022-12-07T14:23:02;6.10;99.90
45012;DHT22;63444;48.148;11.542;2022-12-07T14:25:46;6.10;99.90
45012;DHT22;63444;48.148;11.542;2022-12-07T14:28:26;6.10;99.90
45012;DHT22;63444;48.148;11.542;2022-12-07T14:30:52;6.00;99.90
45012;DHT22;63444;48.148;11.542;2022-12-07T14:33:18;6.00;99.90
45012;DHT22;63444;48.148;11.542;2022-12-07T14:35:44;6.00;99.90
45012;DHT22;63444;48.148;11.542;2022-12-07T14:38:10;6.00;99.90
45012;DHT22;63444;48.148;11.542;2022-12-07T14:40:35;5.90;99.90
45012;DHT22;63444;48.148;11.542;2022-12-07T14:43:03;5.90;99.90
45012;DHT22;63444;48.148;11.542;2022-12-07T14:45:30;5.80;99.90
45012;DHT22;63444;48.148;11.542;2022-12-07T14:47:55;5.80;99.90
45012;DHT22;63444;48.148;11.542;2022-12-07T14:50:21;5.70;99.90
45012;DHT22;63444;48.148;11.542;2022-12-07T14:52:59;5.70;99.90
45012;DHT22;63444;48.148;11.542;2022-12-07T14:55:31;5.70;99.90
45012;DHT22;63444;48.148;11.542;2022-12-07T14:57:57;5.70;99.90
45012;DHT22;63444;48.148;11.542;2022-12-07T15:00:25;5.70;99.90
45012;DHT22;63444;48.148;11.542;2022-12-07T15:02:52;5.70;99.90
45012;DHT22;63444;48.148;11.542;2022-12-07T15:05:18;5.70;99.90
45012;DHT22;63444;48.148;11.542;2022-12-07T15:07:45;5.70;99.90
45012;DHT22;63444;48.148;11.542;2022-12-07T15:10:20;5.70;99.90
45012;DHT22;63444;48.148;11.542;2022-12-07T15:12:47;5.60;99.90
45012;DHT22;63444;48.148;11.542;2022-12-07T15:15:13;5.70;99.90
45012;DHT22;63444;48.148;11.542;2022-12-07T15:17:39;5.70;99.90
45012;DHT22;63444;48.148;11.542;2022-12-07T15:20:07;5.70;99.90
45012;DHT22;63444;48.148;11.542;2022-12-07T15:22:33;5.70;99.90
45012;DHT22;63444;48.148;11.542;2022-12-07T15:24:58;5.70;99.90
45012;DHT22;63444;48.148;11.542;2022-12-07T15:27:24;5.70;99.90
45012;DHT22;63444;48.148;11.542;2022-12-07T15:29:49;5.60;99.90
45012;DHT22;63444;48.148;11.542;2022-12-07T15:32:15;5.60;99.90
45012;DHT22;63444;48.148;11.542;2022-12-07T15:34:40;5.60;99.90
45012;DHT22;63444;48.148;11.542;2022-12-07T15:37:07;5.60;99.90
45012;DHT22;63444;48.148;11.542;2022-12-07T15:39:33;5.60;99.90
45012;DHT22;63444;48.148;11.542;2022-12-07T15:41:59;5.60;99.90
45012;DHT22;63444;48.148;11.542;2022-12-07T15:44:24;5.60;99.90
45012;DHT22;63444;48.148;11.542;2022-12-07T15:47:08;5.60;99.90
45012;DHT22;63444;48.148;11.542;2022-12-07T15:49:34;5.50;99.90
45012;DHT22;63444;48.148;11.542;2022-12-07T15:52:00;5.50;99.90
45012;DHT22;63444;48.148;11.542;2022-12-07T15:54:28;5.40;99.90
45012;DHT22;63444;48.148;11.542;2022-12-07T15:56:54;5.40;99.90
45012;DHT22;63444;48.148;11.542;2022-12-07T15:59:21;5.40;99.90
45012;DHT22;63444;48.148;11.542;2022-12-07T16:01:47;5.40;99.90
45012;DHT22;63444;48.148;11.542;2022-12-07T16:04:12;5.30;99.90
45012;DHT22;63444;48.148;11.542;2022-12-07T16:06:38;5.30;99.90
45012;DHT22;63444;48.148;11.542;2022-12-07T16:09:04;5.30;99.90
45012;DHT22;63444;48.148;11.542;2022-12-07T16:11:30;5.30;99.90
45012;DHT22;63444;48.148;11.542;2022-12-07T16:13:56;5.30;99.90
45012;DHT22;63444;48.148;11.542;2022-12-07T16:16:22;5.20;99.90
45012;DHT22;63444;48.148;11.542;2022-12-07T16:18:48;5.20;99.90
45012;DHT22;63444;48.148;11.542;2022-12-07T16:21:16;5.20;99.90
45012;DHT22;63444;48.148;11.542;2022-12-07T16:23:44;5.20;99.90
45012;DHT22;63444;48.148;11.542;2022-12-07T16:26:18;5.20;99.90
45012;DHT22;63444;48.148;11.542;2022-12-07T16:28:44;5.10;99.90
45012;DHT22;63444;48.148;11.542;2022-12-07T16:31:15;5.10;99.90
45012;DHT22;63444;48.148;11.542;2022-12-07T16:33:43;5.20;99.90
45012;DHT22;63444;48.148;11.542;2022-12-07T16:36:10;5.10;99.90
45012;DHT22;63444;48.148;11.542;2022-12-07T16:38:37;5.10;99.90
45012;DHT22;63444;48.148;11.542;2022-12-07T16:41:04;5.10;99.90
45012;DHT22;63444;48.148;11.542;2022-12-07T16:43:30;5.10;99.90
45012;DHT22;63444;48.148;11.542;2022-12-07T16:45:55;5.10;99.90
45012;DHT22;63444;48.148;11.542;2022-12-07T16:48:22;5.00;99.90
45012;DHT22;63444;48.148;11.542;2022-12-07T16:50:49;5.10;99.90
45012;DHT22;63444;48.148;11.542;2022-12-07T16:53:17;5.00;99.90
45012;DHT22;63444;48.148;11.542;2022-12-07T16:55:44;5.00;99.90
45012;DHT22;63444;48.148;11.542;2022-12-07T16:58:12;5.00;99.90
45012;DHT22;63444;48.148;11.542;2022-12-07T17:00:38;5.00;99.90
45012;DHT22;63444;48.148;11.542;2022-12-07T17:03:04;4.90;99.90
45012;DHT22;63444;48.148;11.542;2022-12-07T17:05:30;4.90;99.90
45012;DHT22;63444;48.148;11.542;2022-12-07T17:07:56;4.90;99.90
45012;DHT22;63444;48.148;11.542;2022-12-07T17:10:23;4.90;99.90
45012;DHT22;63444;48.148;11.542;2022-12-07T17:12:49;4.90;99.90
45012;DHT22;63444;48.148;11.542;2022-12-07T17:15:15;4.90;99.90
45012;DHT22;63444;48.148;11.542;2022-12-07T17:17:51;4.90;99.90
45012;DHT22;63444;48.148;11.542;2022-12-07T17:20:17;4.90;99.90
45012;DHT22;63444;48.148;11.542;2022-12-07T17:22:44;4.90;99.90
45012;DHT22;63444;48.148;11.542;2022-12-07T17:25:10;4.90;99.90
45012;DHT22;63444;48.148;11.542;2022-12-07T17:27:36;4.90;99.90
45012;DHT22;63444;48.148;11.542;2022-12-07T17:30:06;4.90;99.90
45012;DHT22;63444;48.148;11.542;2022-12-07T17:32:32;4.90;99.90
45012;DHT22;63444;48.148;11.542;2022-12-07T17:34:58;4.90;99.90
45012;DHT22;63444;48.148;11.542;2022-12-07T17:37:26;4.90;99.90
45012;DHT22;63444;48.148;11.542;2022-12-07T17:39:54;4.90;99.90
45012;DHT22;63444;48.148;11.542;2022-12-07T17:42:25;4.80;99.90
45012;DHT22;63444;48.148;11.542;2022-12-07T17:45:12;4.70;99.90
45012;DHT22;63444;48.148;11.542;2022-12-07T17:47:38;4.50;99.90
45012;DHT22;63444;48.148;11.542;2022-12-07T17:50:05;4.40;99.90
45012;DHT22;63444;48.148;11.542;2022-12-07T17:52:32;4.30;99.90
45012;DHT22;63444;48.148;11.542;2022-12-07T17:55:15;4.20;99.90
45012;DHT22;63444;48.148;11.542;2022-12-07T17:57:41;4.20;99.90
45012;DHT22;63444;48.148;11.542;2022-12-07T18:00:07;4.10;99.90
45012;DHT22;63444;48.148;11.542;2022-12-07T18:02:34;4.00;99.90
45012;DHT22;63444;48.148;11.542;2022-12-07T18:04:59;4.00;99.90
45012;DHT22;63444;48.148;11.542;2022-12-07T18:07:25;4.00;99.90
45012;DHT22;63444;48.148;11.542;2022-12-07T18:09:51;4.00;99.90
45012;DHT22;63444;48.148;11.542;2022-12-07T18:12:16;4.00;99.90